createdAt,value
2022-12-09T00:02:04.910Z,44.57
2022-12-09T00:04:32.064Z,32.27
2022-12-09T00:06:58.724Z,40.40
2022-12-09T00:09:25.236Z,45.17
2022-12-09T00:11:52.948Z,46.80
2022-12-09T00:14:19.750Z,31.67
2022-12-09T00:16:46.608Z,42.23
2022-12-09T00:19:13.543Z,46.17
2022-12-09T00:21:40.085Z,37.50
2022-12-09T00:24:10.110Z,42.20
2022-12-09T00:26:36.681Z,29.40
2022-12-09T00:29:03.635Z,32.00
2022-12-09T00:31:33.486Z,41.80
2022-12-09T00:34:03.466Z,35.43
2022-12-09T00:36:30.416Z,36.03
2022-12-09T00:38:58.525Z,34.83
2022-12-09T00:41:25.887Z,33.90
2022-12-09T00:43:52.634Z,34.37
2022-12-09T00:46:19.577Z,38.40
2022-12-09T00:48:47.094Z,43.33
2022-12-09T00:51:16.381Z,33.13
2022-12-09T00:53:44.017Z,34.47
2022-12-09T00:56:10.773Z,32.53
2022-12-09T00:58:37.319Z,42.77
2022-12-09T01:01:04.185Z,48.47
2022-12-09T01:03:31.441Z,33.90
2022-12-09T01:05:58.384Z,41.03
2022-12-09T01:08:25.198Z,40.07
2022-12-09T01:10:51.680Z,38.50
2022-12-09T01:13:18.245Z,46.40
2022-12-09T01:15:45.402Z,32.77
2022-12-09T01:18:12.995Z,43.67
2022-12-09T01:20:40.366Z,36.17
2022-12-09T01:23:07.142Z,37.60
2022-12-09T01:25:34.188Z,36.87
2022-12-09T01:28:01.063Z,41.90
2022-12-09T01:30:27.765Z,34.93
2022-12-09T01:32:54.600Z,40.67
2022-12-09T01:35:21.356Z,39.93
2022-12-09T01:37:47.968Z,44.13
2022-12-09T01:40:17.899Z,43.40
2022-12-09T01:42:44.974Z,42.27
2022-12-09T01:45:21.342Z,52.37
2022-12-09T01:47:55.025Z,46.20
2022-12-09T01:53:08.588Z,39.80
2022-12-09T01:55:35.558Z,39.33
2022-12-09T01:58:03.753Z,43.07
2022-12-09T02:00:30.962Z,36.90
2022-12-09T02:02:58.275Z,42.10
2022-12-09T02:05:25.322Z,48.17
2022-12-09T02:07:52.970Z,44.53
2022-12-09T02:10:21.926Z,42.87
2022-12-09T02:13:09.586Z,43.13
2022-12-09T02:15:47.111Z,43.17
2022-12-09T02:18:30.321Z,39.47
2022-12-09T02:21:43.496Z,46.50
2022-12-09T02:24:20.254Z,47.97
2022-12-09T02:27:10.607Z,42.50
2022-12-09T02:30:08.955Z,49.83
2022-12-09T02:33:07.125Z,41.10
2022-12-09T02:35:48.674Z,43.50
2022-12-09T02:38:34.027Z,43.10
2022-12-09T02:41:05.409Z,45.27
2022-12-09T02:43:37.992Z,45.40
2022-12-09T02:46:08.636Z,49.87
2022-12-09T02:48:39.571Z,42.93
2022-12-09T02:51:15.281Z,44.13
2022-12-09T02:53:46.710Z,53.40
2022-12-09T02:56:15.677Z,49.23
2022-12-09T02:58:42.280Z,51.13
2022-12-09T03:01:36.588Z,47.77
2022-12-09T03:04:05.061Z,55.20
2022-12-09T03:06:40.885Z,45.67
2022-12-09T03:09:15.347Z,49.37
2022-12-09T03:11:42.668Z,47.03
2022-12-09T03:14:15.856Z,48.87
2022-12-09T03:16:51.350Z,45.33
2022-12-09T03:19:27.373Z,45.93
2022-12-09T03:21:58.552Z,48.03
2022-12-09T03:24:31.322Z,40.17
2022-12-09T03:27:00.528Z,41.90
2022-12-09T03:29:29.271Z,43.67
2022-12-09T03:31:58.872Z,39.43
2022-12-09T03:34:32.291Z,39.83
2022-12-09T03:37:00.662Z,46.07
2022-12-09T03:39:31.836Z,40.70
2022-12-09T03:42:02.378Z,39.77
2022-12-09T03:44:44.745Z,41.40
2022-12-09T03:47:11.646Z,40.00
2022-12-09T03:49:39.701Z,41.57
2022-12-09T03:52:27.098Z,41.70
2022-12-09T03:55:03.312Z,43.10
2022-12-09T03:57:30.309Z,41.77
2022-12-09T04:00:00.838Z,39.03
2022-12-09T04:02:28.257Z,36.83
2022-12-09T04:04:55.234Z,33.33
2022-12-09T04:07:22.186Z,35.27
2022-12-09T04:09:49.050Z,37.43
2022-12-09T04:12:15.778Z,35.70
2022-12-09T04:14:42.593Z,46.47
2022-12-09T04:17:11.219Z,40.57
2022-12-09T04:19:40.280Z,44.63
2022-12-09T04:22:07.191Z,43.97
2022-12-09T04:24:33.838Z,41.63
2022-12-09T04:27:00.348Z,42.67
2022-12-09T04:29:26.992Z,38.90
2022-12-09T04:31:53.890Z,38.77
2022-12-09T04:34:20.715Z,41.83
2022-12-09T04:36:48.641Z,41.73
2022-12-09T04:39:15.146Z,41.53
2022-12-09T04:41:41.938Z,40.83
2022-12-09T04:44:08.511Z,41.07
2022-12-09T04:46:35.215Z,43.33
2022-12-09T04:49:01.910Z,42.33
2022-12-09T04:51:31.332Z,40.50
2022-12-09T04:54:02.341Z,43.60
2022-12-09T04:56:28.900Z,39.70
2022-12-09T04:58:55.668Z,42.87
2022-12-09T05:01:30.257Z,42.43
2022-12-09T05:03:58.767Z,41.73
2022-12-09T05:06:26.060Z,35.23
2022-12-09T05:08:52.836Z,49.57
2022-12-09T05:11:20.936Z,60.43
2022-12-09T05:13:48.037Z,52.27
2022-12-09T05:16:17.415Z,42.73
2022-12-09T05:18:45.751Z,41.20
2022-12-09T05:21:15.358Z,38.43
2022-12-09T05:23:42.500Z,38.53
2022-12-09T05:26:11.438Z,50.40
2022-12-09T05:28:38.340Z,40.23
2022-12-09T05:31:10.008Z,42.23
2022-12-09T05:33:37.695Z,43.80
2022-12-09T05:36:04.966Z,37.27
2022-12-09T05:38:31.799Z,42.07
2022-12-09T05:41:02.156Z,44.63
2022-12-09T05:43:28.934Z,43.97
2022-12-09T05:45:56.022Z,44.97
2022-12-09T05:48:22.899Z,43.77
2022-12-09T05:51:01.502Z,50.33
2022-12-09T05:53:29.065Z,43.10
2022-12-09T05:55:55.741Z,44.57
2022-12-09T05:58:22.383Z,42.43
2022-12-09T06:00:49.112Z,45.20
2022-12-09T06:03:16.277Z,42.10
2022-12-09T06:05:43.481Z,43.40
2022-12-09T06:08:10.644Z,52.67
2022-12-09T06:10:41.732Z,94.33
2022-12-09T06:13:10.063Z,43.53
2022-12-09T06:15:36.827Z,47.83
2022-12-09T06:18:03.949Z,39.10
2022-12-09T06:20:30.793Z,42.03
2022-12-09T06:22:58.186Z,41.73
2022-12-09T06:25:24.882Z,41.20
2022-12-09T06:27:52.115Z,39.03
2022-12-09T06:30:19.193Z,42.23
2022-12-09T06:32:46.054Z,45.20
2022-12-09T06:35:13.665Z,40.50
2022-12-09T06:37:41.009Z,40.93
2022-12-09T06:40:08.638Z,40.37
2022-12-09T06:42:35.597Z,42.23
2022-12-09T06:45:02.504Z,41.73
2022-12-09T06:47:29.658Z,42.60
2022-12-09T06:50:02.696Z,55.93
2022-12-09T06:52:33.067Z,44.83
2022-12-09T06:54:59.944Z,48.83
2022-12-09T06:57:26.835Z,41.97
2022-12-09T06:59:53.726Z,42.17
2022-12-09T07:02:20.901Z,38.87
2022-12-09T07:04:53.396Z,46.00
2022-12-09T07:07:20.412Z,42.53
2022-12-09T07:09:47.990Z,42.73
2022-12-09T07:12:14.860Z,43.00
2022-12-09T07:14:41.768Z,39.10
2022-12-09T07:17:08.510Z,45.53
2022-12-09T07:19:35.417Z,39.97
2022-12-09T07:22:02.457Z,43.47
2022-12-09T07:24:29.228Z,48.00
2022-12-09T07:26:55.809Z,40.47
2022-12-09T07:29:22.857Z,38.80
2022-12-09T07:31:49.792Z,39.30
2022-12-09T07:34:16.812Z,41.83
2022-12-09T07:36:43.460Z,46.33
2022-12-09T07:39:16.385Z,40.10
2022-12-09T07:41:45.420Z,40.30
2022-12-09T07:44:12.797Z,41.90
2022-12-09T07:46:40.639Z,42.20
2022-12-09T07:49:07.501Z,39.10
2022-12-09T07:51:34.807Z,39.03
2022-12-09T07:54:01.853Z,42.73
2022-12-09T07:56:29.409Z,42.70
2022-12-09T07:58:57.548Z,42.37
2022-12-09T08:01:29.561Z,41.70
2022-12-09T08:03:57.132Z,36.77
2022-12-09T08:06:26.426Z,36.73
2022-12-09T08:08:55.001Z,48.57
2022-12-09T08:11:24.457Z,40.03
2022-12-09T08:13:51.763Z,36.93
2022-12-09T08:16:21.505Z,38.07
2022-12-09T08:18:49.742Z,37.30
2022-12-09T08:21:19.881Z,45.93
2022-12-09T08:23:47.384Z,44.60
2022-12-09T08:26:16.966Z,36.83
2022-12-09T08:28:44.397Z,35.63
2022-12-09T08:31:16.829Z,36.53
2022-12-09T08:33:44.146Z,33.93
2022-12-09T08:36:13.814Z,32.83
2022-12-09T08:38:41.419Z,34.60
2022-12-09T08:41:12.584Z,32.57
2022-12-09T08:43:40.112Z,39.00
2022-12-09T08:46:07.126Z,34.90
2022-12-09T08:48:38.048Z,35.10
2022-12-09T08:51:06.457Z,31.67
2022-12-09T08:53:33.078Z,36.53
2022-12-09T08:56:08.044Z,37.87
2022-12-09T08:58:34.868Z,30.30
2022-12-09T09:01:01.653Z,28.97
2022-12-09T09:03:29.629Z,37.47
2022-12-09T09:06:09.614Z,33.47
2022-12-09T09:08:39.178Z,32.17
2022-12-09T09:11:15.150Z,28.03
2022-12-09T09:13:43.577Z,29.80
2022-12-09T09:16:20.159Z,30.80
2022-12-09T09:18:47.556Z,34.30
2022-12-09T09:21:16.292Z,31.43
2022-12-09T09:23:43.850Z,31.73
2022-12-09T09:26:18.572Z,29.87
2022-12-09T09:28:45.945Z,28.27
2022-12-09T09:31:15.948Z,31.50
2022-12-09T09:33:43.462Z,29.27
2022-12-09T09:36:14.976Z,31.43
2022-12-09T09:38:41.769Z,26.47
2022-12-09T09:41:20.322Z,27.23
2022-12-09T09:43:47.784Z,29.23
2022-12-09T09:46:39.850Z,28.27
2022-12-09T09:49:18.947Z,26.00
2022-12-09T09:51:46.835Z,30.23
2022-12-09T09:54:15.364Z,27.40
2022-12-09T09:57:22.142Z,26.87
2022-12-09T10:00:14.421Z,28.67
2022-12-09T10:02:54.609Z,29.13
2022-12-09T10:05:34.304Z,28.50
2022-12-09T10:08:27.083Z,32.30
2022-12-09T10:11:12.867Z,31.87
2022-12-09T10:13:48.273Z,35.57
2022-12-09T10:16:32.658Z,33.87
2022-12-09T10:19:21.587Z,53.50
2022-12-09T10:21:51.361Z,37.63
2022-12-09T10:24:23.611Z,29.00
2022-12-09T10:27:12.793Z,28.10
2022-12-09T10:29:55.029Z,27.60
2022-12-09T10:32:25.921Z,29.17
2022-12-09T10:34:53.137Z,25.63
2022-12-09T10:37:25.204Z,23.73
2022-12-09T10:40:02.302Z,24.60
2022-12-09T10:42:47.693Z,22.40
2022-12-09T10:45:14.456Z,26.93
2022-12-09T10:47:41.215Z,23.17
2022-12-09T10:50:08.819Z,23.27
2022-12-09T10:52:45.383Z,24.43
2022-12-09T10:55:30.802Z,26.47
2022-12-09T10:58:15.029Z,22.70
2022-12-09T11:00:41.920Z,27.60
2022-12-09T11:03:28.734Z,24.77
2022-12-09T11:06:01.883Z,25.03
2022-12-09T11:08:29.352Z,25.30
2022-12-09T11:10:56.974Z,24.47
2022-12-09T11:13:39.296Z,27.07
2022-12-09T11:16:08.152Z,25.57
2022-12-09T11:18:44.579Z,25.07
2022-12-09T11:21:30.722Z,24.07
2022-12-09T11:24:02.931Z,26.47
2022-12-09T11:26:39.336Z,22.03
2022-12-09T11:29:17.839Z,21.23
2022-12-09T11:31:45.499Z,26.97
2022-12-09T11:34:24.259Z,22.80
2022-12-09T11:36:54.698Z,24.33
2022-12-09T11:39:35.168Z,17.97
2022-12-09T11:42:25.942Z,19.50
2022-12-09T11:45:06.963Z,20.67
2022-12-09T11:48:13.473Z,19.47
2022-12-09T11:50:33.484Z,23.67
2022-12-09T11:53:08.405Z,19.23
2022-12-09T11:55:41.857Z,20.67
2022-12-09T11:58:15.105Z,24.60
2022-12-09T12:01:04.282Z,26.80
2022-12-09T12:03:47.378Z,24.77
2022-12-09T12:06:22.659Z,21.67
2022-12-09T12:09:04.435Z,23.43
2022-12-09T12:11:40.662Z,25.23
2022-12-09T12:14:17.273Z,24.43
2022-12-09T12:16:57.063Z,24.03
2022-12-09T12:19:30.937Z,20.63
2022-12-09T12:22:28.968Z,23.20
2022-12-09T12:25:05.533Z,26.13
2022-12-09T12:27:45.156Z,49.47
2022-12-09T12:30:15.733Z,30.27
2022-12-09T12:33:40.657Z,23.33
2022-12-09T12:36:07.769Z,27.50
2022-12-09T12:38:52.178Z,21.13
2022-12-09T12:41:27.765Z,25.13
2022-12-09T12:44:21.017Z,25.47
2022-12-09T12:47:09.367Z,23.77
2022-12-09T12:49:42.107Z,28.20
2022-12-09T12:52:47.487Z,24.40
2022-12-09T12:55:25.980Z,22.57
2022-12-09T12:58:13.874Z,20.50
2022-12-09T13:01:04.335Z,24.27
2022-12-09T13:03:42.401Z,24.17
2022-12-09T13:06:13.536Z,25.43
2022-12-09T13:08:49.619Z,22.10
2022-12-09T13:11:29.913Z,27.07
2022-12-09T13:14:01.936Z,28.33
2022-12-09T13:16:32.925Z,23.73
2022-12-09T13:19:19.230Z,28.23
2022-12-09T13:21:46.848Z,27.60
2022-12-09T13:24:46.355Z,27.23
2022-12-09T13:27:25.615Z,25.93
2022-12-09T13:29:56.002Z,26.53
2022-12-09T13:33:00.085Z,41.73
2022-12-09T13:35:34.310Z,25.10
2022-12-09T13:38:01.471Z,25.47
2022-12-09T13:40:38.960Z,24.13
2022-12-09T13:43:20.463Z,21.83
2022-12-09T13:45:53.921Z,24.67
2022-12-09T13:48:20.495Z,23.97
2022-12-09T13:50:49.730Z,24.83
2022-12-09T13:53:19.210Z,24.37
2022-12-09T13:56:01.930Z,27.43
2022-12-09T13:58:52.998Z,31.03
2022-12-09T14:01:41.482Z,30.07
2022-12-09T14:04:17.023Z,26.40
2022-12-09T14:06:46.483Z,28.13
2022-12-09T14:09:45.171Z,26.20
2022-12-09T14:12:14.532Z,27.73
2022-12-09T14:14:43.719Z,26.20
2022-12-09T14:17:17.780Z,24.27
2022-12-09T14:19:53.254Z,24.37
2022-12-09T14:22:20.195Z,23.33
2022-12-09T14:24:50.747Z,26.93
2022-12-09T14:27:25.412Z,32.23
2022-12-09T14:29:57.550Z,29.77
2022-12-09T14:32:26.951Z,32.13
2022-12-09T14:35:02.015Z,28.50
2022-12-09T14:37:37.636Z,24.17
2022-12-09T14:40:26.627Z,27.83
2022-12-09T14:43:10.476Z,25.23
2022-12-09T14:45:48.446Z,23.93
2022-12-09T14:48:21.430Z,24.70
2022-12-09T14:50:48.024Z,26.87
2022-12-09T14:53:24.986Z,23.73
2022-12-09T14:55:51.759Z,28.13
2022-12-09T14:58:22.771Z,26.80
2022-12-09T15:01:00.998Z,22.97
2022-12-09T15:03:35.146Z,24.00
2022-12-09T15:06:06.742Z,25.90
2022-12-09T15:08:39.049Z,25.87
2022-12-09T15:11:26.544Z,24.40
2022-12-09T15:13:55.920Z,26.03
2022-12-09T15:16:28.931Z,25.37
2022-12-09T15:18:57.420Z,24.97
2022-12-09T15:21:33.276Z,23.17
2022-12-09T15:24:00.993Z,27.20
2022-12-09T15:26:33.495Z,24.57
2022-12-09T15:29:01.458Z,23.27
2022-12-09T15:31:32.790Z,29.07
2022-12-09T15:34:09.267Z,24.37
2022-12-09T15:36:41.854Z,24.60
2022-12-09T15:39:25.021Z,25.37
2022-12-09T15:42:07.697Z,24.83
2022-12-09T15:44:53.966Z,25.57
2022-12-09T15:47:46.222Z,25.90
2022-12-09T15:50:23.624Z,23.10
2022-12-09T15:53:03.248Z,32.57
2022-12-09T15:55:50.569Z,25.53
2022-12-09T15:58:23.041Z,29.20
2022-12-09T16:00:51.679Z,27.30
2022-12-09T16:03:31.435Z,27.30
2022-12-09T16:06:00.942Z,27.60
2022-12-09T16:08:37.852Z,23.90
2022-12-09T16:11:05.367Z,23.47
2022-12-09T16:13:32.737Z,25.30
2022-12-09T16:16:02.620Z,25.07
2022-12-09T16:18:46.720Z,55.63
2022-12-09T16:21:17.830Z,54.00
2022-12-09T16:23:47.038Z,30.37
2022-12-09T16:26:38.357Z,25.50
2022-12-09T16:29:14.831Z,27.50
2022-12-09T16:31:42.394Z,26.47
2022-12-09T16:34:21.495Z,26.37
2022-12-09T16:36:55.809Z,30.77
2022-12-09T16:39:25.330Z,30.00
2022-12-09T16:41:51.806Z,30.23
2022-12-09T16:44:27.581Z,33.50
2022-12-09T16:47:11.662Z,30.10
2022-12-09T16:49:39.384Z,29.27
2022-12-09T16:52:06.258Z,30.07
2022-12-09T16:54:32.872Z,29.63
2022-12-09T16:57:02.572Z,30.30
2022-12-09T16:59:37.083Z,29.97
2022-12-09T17:02:09.221Z,32.50
2022-12-09T17:04:36.914Z,28.73
2022-12-09T17:07:03.509Z,33.40
2022-12-09T17:09:30.036Z,37.30
2022-12-09T17:11:56.575Z,34.43
2022-12-09T17:14:23.026Z,31.30
2022-12-09T17:16:50.880Z,36.47
2022-12-09T17:19:18.439Z,35.80
2022-12-09T17:21:45.627Z,43.50
2022-12-09T17:24:12.828Z,33.23
2022-12-09T17:26:41.967Z,34.03
2022-12-09T17:29:09.075Z,52.97
2022-12-09T17:31:35.743Z,42.73
2022-12-09T17:34:02.311Z,40.47
2022-12-09T17:36:32.692Z,35.57
2022-12-09T17:39:04.174Z,30.57
2022-12-09T17:44:37.865Z,31.30
2022-12-09T17:47:06.086Z,32.57
2022-12-09T17:49:35.654Z,31.33
2022-12-09T17:52:02.230Z,33.23
2022-12-09T17:54:29.730Z,36.87
2022-12-09T17:56:56.155Z,38.53
2022-12-09T17:59:22.633Z,34.47
2022-12-09T18:01:49.071Z,31.53
2022-12-09T18:04:15.861Z,36.53
2022-12-09T18:06:45.578Z,34.50
2022-12-09T18:09:17.734Z,37.67
2022-12-09T18:11:45.577Z,35.37
2022-12-09T18:14:12.700Z,36.50
2022-12-09T18:16:39.401Z,37.57
2022-12-09T18:19:13.143Z,41.10
2022-12-09T18:21:39.899Z,38.53
2022-12-09T18:24:06.714Z,35.47
2022-12-09T18:26:39.699Z,41.73
2022-12-09T18:29:08.094Z,35.47
2022-12-09T18:31:36.528Z,39.03
2022-12-09T18:34:03.091Z,36.90
2022-12-09T18:36:32.070Z,49.03
2022-12-09T18:39:00.761Z,56.20
2022-12-09T18:41:30.300Z,36.90
2022-12-09T18:44:02.079Z,38.30
2022-12-09T18:46:34.825Z,38.40
2022-12-09T18:49:05.495Z,35.13
2022-12-09T18:51:33.041Z,34.23
2022-12-09T18:54:00.642Z,37.17
2022-12-09T18:56:27.424Z,34.60
2022-12-09T18:59:06.381Z,35.57
2022-12-09T19:01:34.329Z,30.73
2022-12-09T19:04:02.433Z,36.93
2022-12-09T19:06:34.975Z,35.93
2022-12-09T19:09:05.404Z,37.73
2022-12-09T19:11:34.113Z,33.83
2022-12-09T19:14:01.187Z,40.73
2022-12-09T19:16:28.988Z,34.17
2022-12-09T19:18:56.440Z,33.27
2022-12-09T19:21:24.814Z,33.73
2022-12-09T19:23:51.712Z,32.23
2022-12-09T19:26:22.721Z,31.50
2022-12-09T19:28:54.874Z,36.10
2022-12-09T19:31:36.878Z,118.77
2022-12-09T19:34:35.783Z,65.63
2022-12-09T19:37:02.346Z,44.83
2022-12-09T19:39:34.003Z,39.53
2022-12-09T19:42:01.422Z,41.63
2022-12-09T19:44:59.565Z,41.83
2022-12-09T19:47:14.705Z,48.17
2022-12-09T19:49:42.686Z,54.20
2022-12-09T19:52:09.146Z,46.10
2022-12-09T19:54:36.068Z,52.67
2022-12-09T19:57:03.305Z,45.47
2022-12-09T19:59:33.132Z,50.97
2022-12-09T20:01:59.764Z,47.53
2022-12-09T20:04:51.376Z,48.23
2022-12-09T20:07:19.557Z,48.50
2022-12-09T20:09:46.185Z,42.77
2022-12-09T20:12:12.879Z,46.77
2022-12-09T20:14:39.835Z,48.70
2022-12-09T20:17:06.501Z,52.33
2022-12-09T20:19:33.165Z,45.17
2022-12-09T20:21:59.691Z,46.60
2022-12-09T20:24:29.333Z,50.27
2022-12-09T20:26:57.991Z,42.97
2022-12-09T20:29:24.802Z,45.07
2022-12-09T20:31:52.991Z,43.07
2022-12-09T20:34:19.638Z,47.97
2022-12-09T20:36:46.758Z,49.83
2022-12-09T20:39:19.769Z,49.83
2022-12-09T20:41:47.469Z,48.70
2022-12-09T20:44:15.355Z,50.63
2022-12-09T20:46:46.172Z,45.87
2022-12-09T20:49:13.768Z,47.97
2022-12-09T20:51:41.466Z,42.57
2022-12-09T20:54:11.832Z,45.53
2022-12-09T20:56:38.463Z,52.33
2022-12-09T20:59:06.733Z,55.00
2022-12-09T21:01:35.149Z,50.20
2022-12-09T21:04:04.456Z,56.43
2022-12-09T21:06:34.448Z,54.23
2022-12-09T21:09:06.581Z,53.80
2022-12-09T21:11:33.401Z,60.90
2022-12-09T21:14:01.987Z,59.47
2022-12-09T21:16:31.158Z,64.43
2022-12-09T21:19:02.330Z,56.93
2022-12-09T21:21:34.755Z,60.73
2022-12-09T21:24:01.359Z,61.43
2022-12-09T21:26:31.518Z,61.33
2022-12-09T21:29:01.451Z,62.57
2022-12-09T21:31:32.996Z,64.20
2022-12-09T21:34:03.035Z,62.03
2022-12-09T21:36:32.385Z,63.20
2022-12-09T21:38:59.156Z,64.70
2022-12-09T21:41:28.186Z,67.53
2022-12-09T21:43:58.036Z,63.83
2022-12-09T21:46:27.788Z,65.73
2022-12-09T21:49:01.606Z,65.20
2022-12-09T21:51:30.253Z,64.70
2022-12-09T21:53:57.596Z,64.93
2022-12-09T21:56:27.598Z,59.97
2022-12-09T21:58:56.375Z,62.03
2022-12-09T22:01:31.165Z,56.07
2022-12-09T22:03:59.375Z,58.50
2022-12-09T22:06:26.408Z,56.17
2022-12-09T22:08:53.207Z,57.00
2022-12-09T22:11:25.187Z,56.33
2022-12-09T22:13:52.776Z,62.00
2022-12-09T22:16:25.800Z,65.50
2022-12-09T22:18:54.737Z,55.17
2022-12-09T22:21:25.187Z,58.67
2022-12-09T22:23:56.914Z,60.27
2022-12-09T22:26:24.190Z,57.83
2022-12-09T22:28:51.914Z,56.77
2022-12-09T22:31:22.215Z,60.73
2022-12-09T22:33:50.241Z,65.33
2022-12-09T22:36:17.935Z,61.03
2022-12-09T22:38:44.962Z,57.53
2022-12-09T22:41:18.043Z,59.07
2022-12-09T22:50:28.361Z,55.53
2022-12-09T22:52:55.457Z,55.47
2022-12-09T22:55:21.914Z,61.63
2022-12-09T22:57:48.634Z,56.03
2022-12-09T23:00:15.346Z,56.80
2022-12-09T23:02:41.897Z,56.97
2022-12-09T23:05:08.930Z,57.60
2022-12-09T23:07:35.492Z,55.80
2022-12-09T23:10:02.628Z,56.57
2022-12-09T23:12:32.168Z,59.43
2022-12-09T23:14:58.682Z,57.87
2022-12-09T23:17:25.245Z,55.20
2022-12-09T23:19:51.777Z,59.57
2022-12-09T23:22:18.318Z,56.53
2022-12-09T23:24:46.141Z,63.83
2022-12-09T23:27:12.566Z,61.17
2022-12-09T23:29:39.182Z,62.43
2022-12-09T23:32:06.404Z,59.30
2022-12-09T23:34:33.341Z,63.13
2022-12-09T23:37:00.206Z,62.97
2022-12-09T23:39:27.236Z,56.70
2022-12-09T23:41:54.506Z,59.90
2022-12-09T23:44:21.296Z,64.70
2022-12-09T23:46:47.893Z,54.73
2022-12-09T23:49:15.303Z,60.43
2022-12-09T23:51:44.052Z,55.07
2022-12-09T23:54:14.573Z,51.47
2022-12-09T23:56:44.264Z,48.90
2022-12-09T23:59:13.817Z,50.57
